sensor_id;sensor_type;location;lat;lon;timestamp;temperature;humidity
76239;SHT30;65043;48.392;-4.472;2023-04-24T00:00:12;13.06;63.00
76239;SHT30;65043;48.392;-4.472;2023-04-24T00:02:41;13.03;63.16
76239;SHT30;65043;48.392;-4.472;2023-04-24T00:05:07;13.02;63.24
76239;SHT30;65043;48.392;-4.472;2023-04-24T00:07:33;13.03;63.35
76239;SHT30;65043;48.392;-4.472;2023-04-24T00:09:59;13.03;63.20
76239;SHT30;65043;48.392;-4.472;2023-04-24T00:12:25;13.01;63.42
76239;SHT30;65043;48.392;-4.472;2023-04-24T00:14:51;13.01;63.45
76239;SHT30;65043;48.392;-4.472;2023-04-24T00:17:16;13.01;63.42
76239;SHT30;65043;48.392;-4.472;2023-04-24T00:19:45;12.98;63.49
76239;SHT30;65043;48.392;-4.472;2023-04-24T00:22:11;12.95;63.69
76239;SHT30;65043;48.392;-4.472;2023-04-24T00:24:38;12.92;63.46
76239;SHT30;65043;48.392;-4.472;2023-04-24T00:27:03;12.92;63.74
76239;SHT30;65043;48.392;-4.472;2023-04-24T00:29:29;12.91;63.68
76239;SHT30;65043;48.392;-4.472;2023-04-24T00:31:55;12.89;63.70
76239;SHT30;65043;48.392;-4.472;2023-04-24T00:34:20;12.85;64.02
76239;SHT30;65043;48.392;-4.472;2023-04-24T00:36:45;12.88;64.14
76239;SHT30;65043;48.392;-4.472;2023-04-24T00:39:11;12.87;64.17
76239;SHT30;65043;48.392;-4.472;2023-04-24T00:41:36;12.88;63.81
76239;SHT30;65043;48.392;-4.472;2023-04-24T00:44:02;12.85;64.14
76239;SHT30;65043;48.392;-4.472;2023-04-24T00:46:28;12.88;64.14
76239;SHT30;65043;48.392;-4.472;2023-04-24T00:48:53;12.85;64.00
76239;SHT30;65043;48.392;-4.472;2023-04-24T00:51:20;12.84;64.35
76239;SHT30;65043;48.392;-4.472;2023-04-24T00:53:46;12.87;64.18
76239;SHT30;65043;48.392;-4.472;2023-04-24T00:56:11;12.87;64.22
76239;SHT30;65043;48.392;-4.472;2023-04-24T00:58:37;12.82;64.39
76239;SHT30;65043;48.392;-4.472;2023-04-24T01:01:02;12.84;64.68
76239;SHT30;65043;48.392;-4.472;2023-04-24T01:03:33;12.84;64.57
76239;SHT30;65043;48.392;-4.472;2023-04-24T01:05:59;12.82;64.85
76239;SHT30;65043;48.392;-4.472;2023-04-24T01:08:26;12.78;64.68
76239;SHT30;65043;48.392;-4.472;2023-04-24T01:10:52;12.82;64.91
76239;SHT30;65043;48.392;-4.472;2023-04-24T01:13:19;12.85;65.11
76239;SHT30;65043;48.392;-4.472;2023-04-24T01:15:45;12.82;65.27
76239;SHT30;65043;48.392;-4.472;2023-04-24T01:18:11;12.84;65.16
76239;SHT30;65043;48.392;-4.472;2023-04-24T01:20:38;12.87;65.10
76239;SHT30;65043;48.392;-4.472;2023-04-24T01:23:05;12.88;65.10
76239;SHT30;65043;48.392;-4.472;2023-04-24T01:25:31;12.85;64.96
76239;SHT30;65043;48.392;-4.472;2023-04-24T01:27:58;12.87;65.35
76239;SHT30;65043;48.392;-4.472;2023-04-24T01:30:23;12.87;65.21
76239;SHT30;65043;48.392;-4.472;2023-04-24T01:32:49;12.85;65.19
76239;SHT30;65043;48.392;-4.472;2023-04-24T01:35:15;12.85;65.48
76239;SHT30;65043;48.392;-4.472;2023-04-24T01:37:40;12.85;65.12
76239;SHT30;65043;48.392;-4.472;2023-04-24T01:40:06;12.85;65.30
76239;SHT30;65043;48.392;-4.472;2023-04-24T01:42:32;12.85;65.51
76239;SHT30;65043;48.392;-4.472;2023-04-24T01:44:59;12.85;65.37
76239;SHT30;65043;48.392;-4.472;2023-04-24T01:47:25;12.82;65.89
76239;SHT30;65043;48.392;-4.472;2023-04-24T01:49:50;12.82;65.71
76239;SHT30;65043;48.392;-4.472;2023-04-24T01:52:16;12.85;65.76
76239;SHT30;65043;48.392;-4.472;2023-04-24T01:54:43;12.87;65.66
76239;SHT30;65043;48.392;-4.472;2023-04-24T01:57:10;12.87;65.72
76239;SHT30;65043;48.392;-4.472;2023-04-24T01:59:35;12.87;65.56
76239;SHT30;65043;48.392;-4.472;2023-04-24T02:02:02;12.88;65.86
76239;SHT30;65043;48.392;-4.472;2023-04-24T02:04:28;12.85;65.65
76239;SHT30;65043;48.392;-4.472;2023-04-24T02:06:53;12.84;65.70
76239;SHT30;65043;48.392;-4.472;2023-04-24T02:09:19;12.84;65.91
76239;SHT30;65043;48.392;-4.472;2023-04-24T02:11:44;12.87;65.75
76239;SHT30;65043;48.392;-4.472;2023-04-24T02:14:09;12.84;66.03
76239;SHT30;65043;48.392;-4.472;2023-04-24T02:16:35;12.85;65.83
76239;SHT30;65043;48.392;-4.472;2023-04-24T02:19:01;12.82;66.13
76239;SHT30;65043;48.392;-4.472;2023-04-24T02:21:27;12.84;65.87
76239;SHT30;65043;48.392;-4.472;2023-04-24T02:23:53;12.81;66.00
76239;SHT30;65043;48.392;-4.472;2023-04-24T02:26:19;12.75;66.13
76239;SHT30;65043;48.392;-4.472;2023-04-24T02:28:44;12.77;65.91
76239;SHT30;65043;48.392;-4.472;2023-04-24T02:31:10;12.74;66.08
76239;SHT30;65043;48.392;-4.472;2023-04-24T02:33:36;12.72;66.28
76239;SHT30;65043;48.392;-4.472;2023-04-24T02:36:02;12.72;66.22
76239;SHT30;65043;48.392;-4.472;2023-04-24T02:38:28;12.72;66.32
76239;SHT30;65043;48.392;-4.472;2023-04-24T02:40:54;12.74;66.24
76239;SHT30;65043;48.392;-4.472;2023-04-24T02:43:19;12.72;66.09
76239;SHT30;65043;48.392;-4.472;2023-04-24T02:45:45;12.74;66.28
76239;SHT30;65043;48.392;-4.472;2023-04-24T02:48:10;12.72;66.37
76239;SHT30;65043;48.392;-4.472;2023-04-24T02:50:36;12.71;66.40
76239;SHT30;65043;48.392;-4.472;2023-04-24T02:53:01;12.72;66.41
76239;SHT30;65043;48.392;-4.472;2023-04-24T02:55:27;12.74;66.26
76239;SHT30;65043;48.392;-4.472;2023-04-24T02:57:52;12.75;66.52
76239;SHT30;65043;48.392;-4.472;2023-04-24T03:00:17;12.74;66.59
76239;SHT30;65043;48.392;-4.472;2023-04-24T03:02:43;12.68;66.59
76239;SHT30;65043;48.392;-4.472;2023-04-24T03:05:08;12.74;66.58
76239;SHT30;65043;48.392;-4.472;2023-04-24T03:07:34;12.71;66.59
76239;SHT30;65043;48.392;-4.472;2023-04-24T03:10:00;12.69;66.58
76239;SHT30;65043;48.392;-4.472;2023-04-24T03:12:25;12.67;66.51
76239;SHT30;65043;48.392;-4.472;2023-04-24T03:14:50;12.65;66.53
76239;SHT30;65043;48.392;-4.472;2023-04-24T03:17:16;12.65;66.47
76239;SHT30;65043;48.392;-4.472;2023-04-24T03:19:41;12.64;66.50
76239;SHT30;65043;48.392;-4.472;2023-04-24T03:22:06;12.61;66.49
76239;SHT30;65043;48.392;-4.472;2023-04-24T03:24:34;12.64;66.47
76239;SHT30;65043;48.392;-4.472;2023-04-24T03:26:59;12.64;66.56
76239;SHT30;65043;48.392;-4.472;2023-04-24T03:29:25;12.64;66.55
76239;SHT30;65043;48.392;-4.472;2023-04-24T03:31:50;12.62;66.59
76239;SHT30;65043;48.392;-4.472;2023-04-24T03:34:16;12.62;66.57
76239;SHT30;65043;48.392;-4.472;2023-04-24T03:36:41;12.64;66.70
76239;SHT30;65043;48.392;-4.472;2023-04-24T03:39:07;12.64;66.64
76239;SHT30;65043;48.392;-4.472;2023-04-24T03:41:33;12.67;66.59
76239;SHT30;65043;48.392;-4.472;2023-04-24T03:43:58;12.65;66.76
76239;SHT30;65043;48.392;-4.472;2023-04-24T03:46:23;12.65;66.49
76239;SHT30;65043;48.392;-4.472;2023-04-24T03:48:49;12.67;66.65
76239;SHT30;65043;48.392;-4.472;2023-04-24T03:51:14;12.64;66.54
76239;SHT30;65043;48.392;-4.472;2023-04-24T03:53:40;12.62;66.56
76239;SHT30;65043;48.392;-4.472;2023-04-24T03:56:05;12.62;66.41
76239;SHT30;65043;48.392;-4.472;2023-04-24T03:58:31;12.65;66.30
76239;SHT30;65043;48.392;-4.472;2023-04-24T04:00:56;12.65;66.36
76239;SHT30;65043;48.392;-4.472;2023-04-24T04:03:25;12.67;66.36
76239;SHT30;65043;48.392;-4.472;2023-04-24T04:05:50;12.64;66.29
76239;SHT30;65043;48.392;-4.472;2023-04-24T04:08:16;12.64;66.29
76239;SHT30;65043;48.392;-4.472;2023-04-24T04:10:41;12.64;66.35
76239;SHT30;65043;48.392;-4.472;2023-04-24T04:13:07;12.61;66.34
76239;SHT30;65043;48.392;-4.472;2023-04-24T04:15:32;12.58;66.20
76239;SHT30;65043;48.392;-4.472;2023-04-24T04:17:58;12.57;66.43
76239;SHT30;65043;48.392;-4.472;2023-04-24T04:20:23;12.54;66.42
76239;SHT30;65043;48.392;-4.472;2023-04-24T04:22:48;12.54;66.66
76239;SHT30;65043;48.392;-4.472;2023-04-24T04:25:14;12.53;66.41
76239;SHT30;65043;48.392;-4.472;2023-04-24T04:27:39;12.53;66.39
76239;SHT30;65043;48.392;-4.472;2023-04-24T04:30:07;12.53;66.66
76239;SHT30;65043;48.392;-4.472;2023-04-24T04:32:34;12.50;66.28
76239;SHT30;65043;48.392;-4.472;2023-04-24T04:35:00;12.47;66.21
76239;SHT30;65043;48.392;-4.472;2023-04-24T04:37:32;12.45;66.30
76239;SHT30;65043;48.392;-4.472;2023-04-24T04:39:58;12.44;66.45
76239;SHT30;65043;48.392;-4.472;2023-04-24T04:42:25;12.47;66.43
76239;SHT30;65043;48.392;-4.472;2023-04-24T04:44:50;12.47;66.25
76239;SHT30;65043;48.392;-4.472;2023-04-24T04:47:16;12.45;66.20
76239;SHT30;65043;48.392;-4.472;2023-04-24T04:49:42;12.45;66.05
76239;SHT30;65043;48.392;-4.472;2023-04-24T04:52:08;12.44;66.31
76239;SHT30;65043;48.392;-4.472;2023-04-24T04:54:33;12.43;65.98
76239;SHT30;65043;48.392;-4.472;2023-04-24T04:56:59;12.41;66.05
76239;SHT30;65043;48.392;-4.472;2023-04-24T04:59:25;12.40;65.99
76239;SHT30;65043;48.392;-4.472;2023-04-24T05:01:51;12.40;65.85
76239;SHT30;65043;48.392;-4.472;2023-04-24T05:04:16;12.36;65.89
76239;SHT30;65043;48.392;-4.472;2023-04-24T05:06:41;12.38;66.00
76239;SHT30;65043;48.392;-4.472;2023-04-24T05:09:07;12.37;66.07
76239;SHT30;65043;48.392;-4.472;2023-04-24T05:11:33;12.36;65.89
76239;SHT30;65043;48.392;-4.472;2023-04-24T05:13:58;12.36;65.99
76239;SHT30;65043;48.392;-4.472;2023-04-24T05:16:23;12.37;66.20
76239;SHT30;65043;48.392;-4.472;2023-04-24T05:18:49;12.37;66.12
76239;SHT30;65043;48.392;-4.472;2023-04-24T05:21:14;12.38;66.18
76239;SHT30;65043;48.392;-4.472;2023-04-24T05:23:39;12.37;66.23
76239;SHT30;65043;48.392;-4.472;2023-04-24T05:26:05;12.36;66.44
76239;SHT30;65043;48.392;-4.472;2023-04-24T05:28:30;12.38;66.32
76239;SHT30;65043;48.392;-4.472;2023-04-24T05:30:56;12.41;66.15
76239;SHT30;65043;48.392;-4.472;2023-04-24T05:33:21;12.40;66.18
76239;SHT30;65043;48.392;-4.472;2023-04-24T05:35:47;12.45;65.90
76239;SHT30;65043;48.392;-4.472;2023-04-24T05:38:13;12.45;66.08
76239;SHT30;65043;48.392;-4.472;2023-04-24T05:40:39;12.45;66.37
76239;SHT30;65043;48.392;-4.472;2023-04-24T05:43:05;12.50;66.11
76239;SHT30;65043;48.392;-4.472;2023-04-24T05:45:30;12.50;66.14
76239;SHT30;65043;48.392;-4.472;2023-04-24T05:47:56;12.51;66.21
76239;SHT30;65043;48.392;-4.472;2023-04-24T05:50:22;12.54;66.35
76239;SHT30;65043;48.392;-4.472;2023-04-24T05:52:47;12.58;66.35
76239;SHT30;65043;48.392;-4.472;2023-04-24T05:55:13;12.57;66.44
76239;SHT30;65043;48.392;-4.472;2023-04-24T05:57:38;12.61;66.47
76239;SHT30;65043;48.392;-4.472;2023-04-24T06:00:05;12.61;66.49
76239;SHT30;65043;48.392;-4.472;2023-04-24T06:02:30;12.62;66.46
76239;SHT30;65043;48.392;-4.472;2023-04-24T06:04:58;12.65;66.59
76239;SHT30;65043;48.392;-4.472;2023-04-24T06:07:25;12.67;66.50
76239;SHT30;65043;48.392;-4.472;2023-04-24T06:09:51;12.68;66.58
76239;SHT30;65043;48.392;-4.472;2023-04-24T06:12:17;12.69;66.07
76239;SHT30;65043;48.392;-4.472;2023-04-24T06:14:42;12.72;66.07
76239;SHT30;65043;48.392;-4.472;2023-04-24T06:17:08;12.74;66.27
76239;SHT30;65043;48.392;-4.472;2023-04-24T06:19:33;12.74;66.66
76239;SHT30;65043;48.392;-4.472;2023-04-24T06:21:59;12.78;66.56
76239;SHT30;65043;48.392;-4.472;2023-04-24T06:24:28;12.77;66.56
76239;SHT30;65043;48.392;-4.472;2023-04-24T06:26:53;12.78;67.04
76239;SHT30;65043;48.392;-4.472;2023-04-24T06:29:19;12.82;67.17
76239;SHT30;65043;48.392;-4.472;2023-04-24T06:31:45;12.84;66.63
76239;SHT30;65043;48.392;-4.472;2023-04-24T06:34:10;12.85;67.02
76239;SHT30;65043;48.392;-4.472;2023-04-24T06:36:35;12.88;66.93
76239;SHT30;65043;48.392;-4.472;2023-04-24T06:39:01;12.89;66.98
76239;SHT30;65043;48.392;-4.472;2023-04-24T06:41:28;12.95;67.35
76239;SHT30;65043;48.392;-4.472;2023-04-24T06:43:53;12.96;67.16
76239;SHT30;65043;48.392;-4.472;2023-04-24T06:46:19;12.99;66.81
76239;SHT30;65043;48.392;-4.472;2023-04-24T06:48:47;12.99;66.99
76239;SHT30;65043;48.392;-4.472;2023-04-24T06:51:12;13.02;66.92
76239;SHT30;65043;48.392;-4.472;2023-04-24T06:53:38;13.05;66.55
76239;SHT30;65043;48.392;-4.472;2023-04-24T06:56:03;13.09;66.83
76239;SHT30;65043;48.392;-4.472;2023-04-24T06:58:30;13.11;66.59
76239;SHT30;65043;48.392;-4.472;2023-04-24T07:00:55;13.13;66.72
76239;SHT30;65043;48.392;-4.472;2023-04-24T07:03:21;13.15;66.43
76239;SHT30;65043;48.392;-4.472;2023-04-24T07:05:48;13.18;66.43
76239;SHT30;65043;48.392;-4.472;2023-04-24T07:08:14;13.22;66.55
76239;SHT30;65043;48.392;-4.472;2023-04-24T07:10:42;13.23;66.49
76239;SHT30;65043;48.392;-4.472;2023-04-24T07:13:07;13.27;66.85
76239;SHT30;65043;48.392;-4.472;2023-04-24T07:15:33;13.33;66.33
76239;SHT30;65043;48.392;-4.472;2023-04-24T07:17:59;13.33;66.73
76239;SHT30;65043;48.392;-4.472;2023-04-24T07:20:25;13.39;66.64
76239;SHT30;65043;48.392;-4.472;2023-04-24T07:22:51;13.42;66.48
76239;SHT30;65043;48.392;-4.472;2023-04-24T07:25:17;13.46;66.63
76239;SHT30;65043;48.392;-4.472;2023-04-24T07:27:42;13.52;66.95
76239;SHT30;65043;48.392;-4.472;2023-04-24T07:30:08;13.57;66.60
76239;SHT30;65043;48.392;-4.472;2023-04-24T07:32:34;13.63;66.07
76239;SHT30;65043;48.392;-4.472;2023-04-24T07:35:00;13.64;66.40
76239;SHT30;65043;48.392;-4.472;2023-04-24T07:37:25;13.67;66.09
76239;SHT30;65043;48.392;-4.472;2023-04-24T07:39:51;13.69;66.28
76239;SHT30;65043;48.392;-4.472;2023-04-24T07:42:16;13.73;66.09
76239;SHT30;65043;48.392;-4.472;2023-04-24T07:44:42;13.74;66.15
76239;SHT30;65043;48.392;-4.472;2023-04-24T07:47:07;13.77;66.57
76239;SHT30;65043;48.392;-4.472;2023-04-24T07:49:33;13.80;66.62
76239;SHT30;65043;48.392;-4.472;2023-04-24T07:52:00;13.82;66.34
76239;SHT30;65043;48.392;-4.472;2023-04-24T07:54:27;13.85;66.59
76239;SHT30;65043;48.392;-4.472;2023-04-24T07:56:52;13.82;66.65
76239;SHT30;65043;48.392;-4.472;2023-04-24T07:59:17;13.85;66.58
76239;SHT30;65043;48.392;-4.472;2023-04-24T08:01:43;13.87;66.47
76239;SHT30;65043;48.392;-4.472;2023-04-24T08:04:08;13.91;66.32
76239;SHT30;65043;48.392;-4.472;2023-04-24T08:06:34;13.91;66.46
76239;SHT30;65043;48.392;-4.472;2023-04-24T08:08:59;13.88;66.70
76239;SHT30;65043;48.392;-4.472;2023-04-24T08:11:26;13.92;67.04
76239;SHT30;65043;48.392;-4.472;2023-04-24T08:13:51;13.94;66.59
76239;SHT30;65043;48.392;-4.472;2023-04-24T08:16:17;14.04;66.17
76239;SHT30;65043;48.392;-4.472;2023-04-24T08:18:42;14.12;66.40
76239;SHT30;65043;48.392;-4.472;2023-04-24T08:21:07;14.10;66.22
76239;SHT30;65043;48.392;-4.472;2023-04-24T08:23:33;14.18;65.95
76239;SHT30;65043;48.392;-4.472;2023-04-24T08:25:58;14.14;65.12
76239;SHT30;65043;48.392;-4.472;2023-04-24T08:28:24;14.17;65.10
76239;SHT30;65043;48.392;-4.472;2023-04-24T08:30:49;14.14;64.97
76239;SHT30;65043;48.392;-4.472;2023-04-24T08:33:22;14.07;64.87
76239;SHT30;65043;48.392;-4.472;2023-04-24T08:35:47;14.02;64.53
76239;SHT30;65043;48.392;-4.472;2023-04-24T08:38:13;13.94;64.44
76239;SHT30;65043;48.392;-4.472;2023-04-24T08:40:38;13.95;64.81
76239;SHT30;65043;48.392;-4.472;2023-04-24T08:43:05;14.02;64.72
76239;SHT30;65043;48.392;-4.472;2023-04-24T08:45:30;14.15;64.48
76239;SHT30;65043;48.392;-4.472;2023-04-24T08:47:57;14.28;63.50
76239;SHT30;65043;48.392;-4.472;2023-04-24T08:50:24;14.33;63.33
76239;SHT30;65043;48.392;-4.472;2023-04-24T08:52:51;14.31;61.49
76239;SHT30;65043;48.392;-4.472;2023-04-24T08:55:19;14.29;61.23
76239;SHT30;65043;48.392;-4.472;2023-04-24T08:57:50;14.31;61.58
76239;SHT30;65043;48.392;-4.472;2023-04-24T09:00:16;14.29;61.25
76239;SHT30;65043;48.392;-4.472;2023-04-24T09:02:42;14.24;62.38
76239;SHT30;65043;48.392;-4.472;2023-04-24T09:05:12;14.29;62.39
76239;SHT30;65043;48.392;-4.472;2023-04-24T09:07:39;14.28;62.20
76239;SHT30;65043;48.392;-4.472;2023-04-24T09:10:07;14.32;60.96
76239;SHT30;65043;48.392;-4.472;2023-04-24T09:12:34;14.33;61.18
76239;SHT30;65043;48.392;-4.472;2023-04-24T09:15:00;14.35;60.93
76239;SHT30;65043;48.392;-4.472;2023-04-24T09:17:30;14.26;59.76
76239;SHT30;65043;48.392;-4.472;2023-04-24T09:19:55;14.18;59.79
76239;SHT30;65043;48.392;-4.472;2023-04-24T09:22:21;14.18;60.43
76239;SHT30;65043;48.392;-4.472;2023-04-24T09:24:47;14.20;60.80
76239;SHT30;65043;48.392;-4.472;2023-04-24T09:27:13;14.25;60.94
76239;SHT30;65043;48.392;-4.472;2023-04-24T09:29:53;14.29;61.31
76239;SHT30;65043;48.392;-4.472;2023-04-24T09:32:20;14.36;61.65
76239;SHT30;65043;48.392;-4.472;2023-04-24T09:35:13;14.43;61.56
76239;SHT30;65043;48.392;-4.472;2023-04-24T09:37:41;14.39;62.05
76239;SHT30;65043;48.392;-4.472;2023-04-24T09:40:18;14.38;62.51
76239;SHT30;65043;48.392;-4.472;2023-04-24T09:42:54;14.46;62.23
76239;SHT30;65043;48.392;-4.472;2023-04-24T09:45:22;14.48;62.32
76239;SHT30;65043;48.392;-4.472;2023-04-24T09:47:51;14.55;62.28
76239;SHT30;65043;48.392;-4.472;2023-04-24T09:50:18;14.58;61.92
76239;SHT30;65043;48.392;-4.472;2023-04-24T09:52:46;14.60;62.20
76239;SHT30;65043;48.392;-4.472;2023-04-24T09:55:19;14.66;62.09
76239;SHT30;65043;48.392;-4.472;2023-04-24T09:57:49;14.56;61.63
76239;SHT30;65043;48.392;-4.472;2023-04-24T10:00:22;14.48;61.72
76239;SHT30;65043;48.392;-4.472;2023-04-24T10:02:54;14.49;61.75
76239;SHT30;65043;48.392;-4.472;2023-04-24T10:05:23;14.48;61.63
76239;SHT30;65043;48.392;-4.472;2023-04-24T10:07:49;14.52;61.62
76239;SHT30;65043;48.392;-4.472;2023-04-24T10:10:15;14.59;61.32
76239;SHT30;65043;48.392;-4.472;2023-04-24T10:12:41;14.68;60.94
76239;SHT30;65043;48.392;-4.472;2023-04-24T10:15:10;14.72;60.27
76239;SHT30;65043;48.392;-4.472;2023-04-24T10:17:38;14.81;59.72
76239;SHT30;65043;48.392;-4.472;2023-04-24T10:20:05;14.84;59.20
76239;SHT30;65043;48.392;-4.472;2023-04-24T10:22:32;14.86;58.78
76239;SHT30;65043;48.392;-4.472;2023-04-24T10:24:58;14.90;57.81
76239;SHT30;65043;48.392;-4.472;2023-04-24T10:27:25;14.87;57.46
76239;SHT30;65043;48.392;-4.472;2023-04-24T10:29:53;14.89;56.93
76239;SHT30;65043;48.392;-4.472;2023-04-24T10:32:18;14.93;56.94
76239;SHT30;65043;48.392;-4.472;2023-04-24T10:34:44;14.94;56.06
76239;SHT30;65043;48.392;-4.472;2023-04-24T10:37:10;14.93;56.16
76239;SHT30;65043;48.392;-4.472;2023-04-24T10:39:35;14.97;56.06
76239;SHT30;65043;48.392;-4.472;2023-04-24T10:42:14;14.97;56.07
76239;SHT30;65043;48.392;-4.472;2023-04-24T10:44:40;15.01;56.17
76239;SHT30;65043;48.392;-4.472;2023-04-24T10:47:12;15.00;56.17
76239;SHT30;65043;48.392;-4.472;2023-04-24T10:49:38;14.99;56.05
76239;SHT30;65043;48.392;-4.472;2023-04-24T10:52:04;14.97;56.14
76239;SHT30;65043;48.392;-4.472;2023-04-24T10:54:46;15.00;56.24
76239;SHT30;65043;48.392;-4.472;2023-04-24T10:59:44;14.93;56.61
76239;SHT30;65043;48.392;-4.472;2023-04-24T11:02:10;14.89;57.00
76239;SHT30;65043;48.392;-4.472;2023-04-24T11:04:36;14.89;56.92
76239;SHT30;65043;48.392;-4.472;2023-04-24T11:07:04;14.89;57.11
76239;SHT30;65043;48.392;-4.472;2023-04-24T11:09:31;14.87;56.07
76239;SHT30;65043;48.392;-4.472;2023-04-24T11:12:10;14.79;56.52
76239;SHT30;65043;48.392;-4.472;2023-04-24T11:17:37;14.86;56.34
76239;SHT30;65043;48.392;-4.472;2023-04-24T11:20:09;15.01;55.81
76239;SHT30;65043;48.392;-4.472;2023-04-24T11:22:38;15.00;54.35
76239;SHT30;65043;48.392;-4.472;2023-04-24T11:25:09;15.07;54.82
76239;SHT30;65043;48.392;-4.472;2023-04-24T11:27:42;15.17;54.78
76239;SHT30;65043;48.392;-4.472;2023-04-24T11:30:08;15.27;55.05
76239;SHT30;65043;48.392;-4.472;2023-04-24T11:32:42;15.32;54.47
76239;SHT30;65043;48.392;-4.472;2023-04-24T11:37:44;15.34;54.03
76239;SHT30;65043;48.392;-4.472;2023-04-24T11:40:16;15.30;53.63
76239;SHT30;65043;48.392;-4.472;2023-04-24T11:42:43;15.30;54.05
76239;SHT30;65043;48.392;-4.472;2023-04-24T11:45:10;15.35;53.47
76239;SHT30;65043;48.392;-4.472;2023-04-24T11:47:36;15.37;53.48
76239;SHT30;65043;48.392;-4.472;2023-04-24T11:50:03;15.30;53.21
76239;SHT30;65043;48.392;-4.472;2023-04-24T11:52:33;15.20;53.47
76239;SHT30;65043;48.392;-4.472;2023-04-24T11:55:02;15.17;54.16
76239;SHT30;65043;48.392;-4.472;2023-04-24T11:57:29;15.11;55.19
76239;SHT30;65043;48.392;-4.472;2023-04-24T11:59:59;15.12;54.82
76239;SHT30;65043;48.392;-4.472;2023-04-24T12:02:26;15.10;55.21
76239;SHT30;65043;48.392;-4.472;2023-04-24T12:04:55;15.11;55.57
76239;SHT30;65043;48.392;-4.472;2023-04-24T12:07:21;15.14;55.71
76239;SHT30;65043;48.392;-4.472;2023-04-24T12:09:55;15.23;55.56
76239;SHT30;65043;48.392;-4.472;2023-04-24T12:12:21;15.37;55.63
76239;SHT30;65043;48.392;-4.472;2023-04-24T12:14:53;15.52;55.07
76239;SHT30;65043;48.392;-4.472;2023-04-24T12:17:29;15.73;54.42
76239;SHT30;65043;48.392;-4.472;2023-04-24T12:20:00;15.81;53.57
76239;SHT30;65043;48.392;-4.472;2023-04-24T12:22:26;15.78;52.34
76239;SHT30;65043;48.392;-4.472;2023-04-24T12:25:02;15.72;52.65
76239;SHT30;65043;48.392;-4.472;2023-04-24T12:27:30;15.78;53.14
76239;SHT30;65043;48.392;-4.472;2023-04-24T12:29:57;15.78;53.19
76239;SHT30;65043;48.392;-4.472;2023-04-24T12:32:24;15.71;52.89
76239;SHT30;65043;48.392;-4.472;2023-04-24T12:34:51;15.69;52.91
76239;SHT30;65043;48.392;-4.472;2023-04-24T12:37:17;15.72;53.27
76239;SHT30;65043;48.392;-4.472;2023-04-24T12:40:08;15.79;53.32
76239;SHT30;65043;48.392;-4.472;2023-04-24T12:42:36;15.85;53.82
76239;SHT30;65043;48.392;-4.472;2023-04-24T12:45:06;15.85;53.84
76239;SHT30;65043;48.392;-4.472;2023-04-24T12:47:34;15.81;53.39
76239;SHT30;65043;48.392;-4.472;2023-04-24T12:50:00;15.66;53.75
76239;SHT30;65043;48.392;-4.472;2023-04-24T12:52:26;15.52;53.24
76239;SHT30;65043;48.392;-4.472;2023-04-24T12:54:54;15.45;54.04
76239;SHT30;65043;48.392;-4.472;2023-04-24T12:57:20;15.38;55.23
76239;SHT30;65043;48.392;-4.472;2023-04-24T12:59:45;15.44;55.27
76239;SHT30;65043;48.392;-4.472;2023-04-24T13:02:11;15.54;55.85
76239;SHT30;65043;48.392;-4.472;2023-04-24T13:04:37;15.62;55.52
76239;SHT30;65043;48.392;-4.472;2023-04-24T13:07:02;15.63;55.06
76239;SHT30;65043;48.392;-4.472;2023-04-24T13:09:28;15.66;55.21
76239;SHT30;65043;48.392;-4.472;2023-04-24T13:11:54;15.73;54.90
76239;SHT30;65043;48.392;-4.472;2023-04-24T13:14:20;15.78;54.58
76239;SHT30;65043;48.392;-4.472;2023-04-24T13:16:45;15.78;55.41
76239;SHT30;65043;48.392;-4.472;2023-04-24T13:19:11;15.75;55.52
76239;SHT30;65043;48.392;-4.472;2023-04-24T13:21:36;15.63;54.79
76239;SHT30;65043;48.392;-4.472;2023-04-24T13:24:01;15.55;54.93
76239;SHT30;65043;48.392;-4.472;2023-04-24T13:26:29;15.52;56.15
76239;SHT30;65043;48.392;-4.472;2023-04-24T13:28:54;15.57;56.23
76239;SHT30;65043;48.392;-4.472;2023-04-24T13:31:19;15.55;54.56
76239;SHT30;65043;48.392;-4.472;2023-04-24T13:33:45;15.61;54.37
76239;SHT30;65043;48.392;-4.472;2023-04-24T13:36:10;15.72;54.89
76239;SHT30;65043;48.392;-4.472;2023-04-24T13:38:35;15.79;53.38
76239;SHT30;65043;48.392;-4.472;2023-04-24T13:41:01;15.81;52.84
76239;SHT30;65043;48.392;-4.472;2023-04-24T13:43:26;15.81;51.90
76239;SHT30;65043;48.392;-4.472;2023-04-24T13:45:52;15.81;52.33
76239;SHT30;65043;48.392;-4.472;2023-04-24T13:48:17;15.77;50.14
76239;SHT30;65043;48.392;-4.472;2023-04-24T13:50:43;15.62;49.93
76239;SHT30;65043;48.392;-4.472;2023-04-24T13:53:10;15.48;50.66
76239;SHT30;65043;48.392;-4.472;2023-04-24T13:55:36;15.47;51.18
76239;SHT30;65043;48.392;-4.472;2023-04-24T13:58:01;15.49;51.27
76239;SHT30;65043;48.392;-4.472;2023-04-24T14:00:28;15.45;51.89
76239;SHT30;65043;48.392;-4.472;2023-04-24T14:02:53;15.45;52.20
76239;SHT30;65043;48.392;-4.472;2023-04-24T14:05:19;15.52;52.39
76239;SHT30;65043;48.392;-4.472;2023-04-24T14:07:44;15.59;52.28
76239;SHT30;65043;48.392;-4.472;2023-04-24T14:10:10;15.58;52.95
76239;SHT30;65043;48.392;-4.472;2023-04-24T14:12:35;15.59;53.43
76239;SHT30;65043;48.392;-4.472;2023-04-24T14:15:01;15.63;52.90
76239;SHT30;65043;48.392;-4.472;2023-04-24T14:17:26;15.72;52.73
76239;SHT30;65043;48.392;-4.472;2023-04-24T14:19:52;15.85;52.68
76239;SHT30;65043;48.392;-4.472;2023-04-24T14:22:20;16.03;52.60
76239;SHT30;65043;48.392;-4.472;2023-04-24T14:24:46;16.21;51.31
76239;SHT30;65043;48.392;-4.472;2023-04-24T14:27:12;16.34;51.55
76239;SHT30;65043;48.392;-4.472;2023-04-24T14:29:37;16.47;50.99
76239;SHT30;65043;48.392;-4.472;2023-04-24T14:32:03;16.43;50.95
76239;SHT30;65043;48.392;-4.472;2023-04-24T14:34:28;16.31;51.84
76239;SHT30;65043;48.392;-4.472;2023-04-24T14:36:53;16.27;52.52
76239;SHT30;65043;48.392;-4.472;2023-04-24T14:39:19;16.24;52.82
76239;SHT30;65043;48.392;-4.472;2023-04-24T14:41:45;16.17;53.18
76239;SHT30;65043;48.392;-4.472;2023-04-24T14:44:10;15.98;52.17
76239;SHT30;65043;48.392;-4.472;2023-04-24T14:46:36;15.83;52.45
76239;SHT30;65043;48.392;-4.472;2023-04-24T14:49:01;15.66;54.11
76239;SHT30;65043;48.392;-4.472;2023-04-24T14:51:27;15.61;54.75
76239;SHT30;65043;48.392;-4.472;2023-04-24T14:53:52;15.55;55.33
76239;SHT30;65043;48.392;-4.472;2023-04-24T14:56:18;15.52;55.30
76239;SHT30;65043;48.392;-4.472;2023-04-24T14:58:44;15.42;55.74
76239;SHT30;65043;48.392;-4.472;2023-04-24T15:01:10;15.41;56.25
76239;SHT30;65043;48.392;-4.472;2023-04-24T15:03:35;15.37;56.59
76239;SHT30;65043;48.392;-4.472;2023-04-24T15:06:01;15.32;56.16
76239;SHT30;65043;48.392;-4.472;2023-04-24T15:08:27;15.32;56.36
76239;SHT30;65043;48.392;-4.472;2023-04-24T15:10:52;15.30;56.21
76239;SHT30;65043;48.392;-4.472;2023-04-24T15:13:18;15.28;55.46
76239;SHT30;65043;48.392;-4.472;2023-04-24T15:15:46;15.23;55.12
76239;SHT30;65043;48.392;-4.472;2023-04-24T15:18:11;15.24;55.55